Time;durP1;ratioP1;P1;durP2;ratioP2;P2;SDS_P1;SDS_P2;PMS_P1;PMS_P2;Temp;Humidity;BMP_temperature;BMP_pressure;BME280_temperature;BME280_humidity;BME280_pressure;Samples;Min_cycle;Max_cycle;Signal;HPM_P1;HPM_P2
2023/07/30 00:00:49;;;;;;;0.62;0.57;;;;;;;23.95;61.36;99470.94;4375764;32;33246;-86
2023/07/30 00:03:17;;;;;;;0.20;0.20;;;;;;;23.87;61.61;99472.72;4363170;32;33984;-86
2023/07/30 00:05:55;;;;;;;0.08;0.00;;;;;;;23.82;61.94;99469.69;4389092;32;33108;-86
2023/07/30 00:08:23;;;;;;;0.77;0.45;;;;;;;23.80;62.42;99480.63;4367799;32;33362;-86
2023/07/30 00:10:50;;;;;;;0.13;0.13;;;;;;;23.98;60.70;99483.25;4389560;32;33507;-85
2023/07/30 00:13:18;;;;;;;0.20;0.20;;;;;;;23.96;61.04;99477.16;4375814;32;34195;-85
2023/07/30 00:15:47;;;;;;;0.10;0.10;;;;;;;23.99;61.14;99482.25;4379085;32;33675;-86
2023/07/30 00:18:15;;;;;;;0.10;0.10;;;;;;;24.00;61.29;99474.00;4378744;32;34508;-85
2023/07/30 00:20:43;;;;;;;0.00;0.00;;;;;;;24.04;61.34;99466.44;4376423;32;34237;-86
2023/07/30 00:23:11;;;;;;;0.32;0.25;;;;;;;23.93;62.10;99466.72;4364149;32;33722;-85
2023/07/30 00:25:38;;;;;;;0.10;0.10;;;;;;;23.90;62.17;99467.03;4368289;32;32153;-85
2023/07/30 00:28:06;;;;;;;0.10;0.10;;;;;;;23.88;62.11;99469.03;4376624;32;33926;-85
2023/07/30 00:30:34;;;;;;;0.30;0.30;;;;;;;23.74;62.17;99468.63;4376294;32;33345;-86
2023/07/30 00:33:01;;;;;;;0.30;0.30;;;;;;;23.81;61.86;99468.00;4386567;32;32697;-85
2023/07/30 00:35:29;;;;;;;0.47;0.47;;;;;;;23.91;nan;99474.94;4388950;32;33470;-85
2023/07/30 00:37:57;;;;;;;0.00;0.00;;;;;;;23.83;59.56;99471.34;4389006;32;33450;-85
2023/07/30 00:40:24;;;;;;;0.10;0.10;;;;;;;23.72;58.99;99470.62;4388788;32;32191;-85
2023/07/30 00:42:52;;;;;;;0.15;0.15;;;;;;;23.89;58.23;99470.75;4389921;32;34394;-85
2023/07/30 00:45:20;;;;;;;0.75;0.30;;;;;;;23.85;58.14;99459.44;4376481;32;33350;-85
2023/07/30 00:47:47;;;;;;;0.60;0.45;;;;;;;24.26;57.11;99457.78;4376123;32;32417;-85
2023/07/30 00:50:18;;;;;;;0.73;0.52;;;;;;;23.99;57.79;99457.97;4363962;32;33217;-84
2023/07/30 00:52:46;;;;;;;0.52;0.20;;;;;;;23.95;57.85;99462.00;4388567;32;34172;-86
2023/07/30 00:55:14;;;;;;;0.68;0.43;;;;;;;23.97;58.06;99447.34;4366038;32;34326;-86
2023/07/30 00:57:42;;;;;;;0.22;0.15;;;;;;;24.19;57.08;99440.53;4389410;32;33060;-86
2023/07/30 01:00:11;;;;;;;0.57;0.40;;;;;;;23.82;57.89;99443.56;4378035;32;32359;-86
2023/07/30 01:02:44;;;;;;;2.83;0.90;;;;;;;24.14;56.92;99436.63;4377414;32;33941;-86
2023/07/30 01:05:12;;;;;;;0.50;0.40;;;;;;;24.15;56.65;99433.75;4376480;32;31855;-86
2023/07/30 01:07:40;;;;;;;0.10;0.10;;;;;;;24.04;57.05;99439.47;4382337;32;32480;-85
2023/07/30 01:10:08;;;;;;;0.47;0.47;;;;;;;24.08;57.11;99453.47;4370647;32;34019;-85
2023/07/30 01:12:36;;;;;;;0.37;0.37;;;;;;;24.09;56.90;99450.59;4376412;32;33003;-85
2023/07/30 01:15:05;;;;;;;0.57;0.45;;;;;;;24.27;56.39;99448.66;4379892;32;33363;-86
2023/07/30 01:17:33;;;;;;;0.30;0.30;;;;;;;24.01;57.09;99442.47;4376412;32;35065;-86
2023/07/30 01:20:02;;;;;;;0.13;0.13;;;;;;;24.36;56.16;99441.47;4388188;32;34309;-85
2023/07/30 01:22:30;;;;;;;0.22;0.13;;;;;;;24.10;56.89;99424.47;4376547;32;32959;-85
2023/07/30 01:24:58;;;;;;;0.37;0.28;;;;;;;24.26;56.39;99422.69;4377728;32;33312;-83
2023/07/30 01:27:31;;;;;;;0.13;0.13;;;;;;;24.24;56.76;99408.50;4380359;32;32993;-83
2023/07/30 01:30:13;;;;;;;0.17;0.17;;;;;;;24.33;56.67;99403.16;4363090;32;33553;-83
2023/07/30 01:32:41;;;;;;;0.32;0.32;;;;;;;24.48;56.02;99402.34;4375680;32;33808;-83
2023/07/30 01:35:10;;;;;;;0.55;0.55;;;;;;;24.47;56.02;99395.28;4374864;32;34362;-83
2023/07/30 01:37:38;;;;;;;0.05;0.05;;;;;;;24.43;56.28;99396.63;4375901;32;32332;-85
2023/07/30 01:40:07;;;;;;;0.00;0.00;;;;;;;24.52;56.12;99381.28;4375617;32;33902;-85
2023/07/30 01:42:35;;;;;;;0.30;0.30;;;;;;;24.62;55.90;99392.75;4362661;32;32667;-84
2023/07/30 01:45:04;;;;;;;0.60;0.40;;;;;;;24.59;55.90;99389.53;4381235;32;34118;-84
2023/07/30 01:47:32;;;;;;;0.00;0.00;;;;;;;24.59;55.66;99393.09;4375750;32;32242;-84
2023/07/30 01:50:00;;;;;;;0.37;0.37;;;;;;;24.48;56.33;99388.03;4375531;32;33386;-84
2023/07/30 01:52:28;;;;;;;0.70;0.70;;;;;;;24.52;56.17;99392.91;4374415;32;34494;-84
2023/07/30 01:54:58;;;;;;;0.10;0.10;;;;;;;24.44;56.73;99390.19;4375982;32;33178;-84
2023/07/30 01:57:25;;;;;;;0.10;0.10;;;;;;;24.56;56.48;99390.75;4388135;32;33256;-84
2023/07/30 01:59:53;;;;;;;0.57;0.30;;;;;;;24.41;57.12;99395.09;4387988;32;32731;-84
2023/07/30 02:02:21;;;;;;;0.10;0.10;;;;;;;24.41;57.17;99387.00;4376842;32;33685;-84
2023/07/30 02:04:49;;;;;;;0.00;0.00;;;;;;;24.37;56.42;99389.19;4375963;32;33972;-84
2023/07/30 02:07:17;;;;;;;1.08;0.98;;;;;;;24.49;56.18;99389.69;4375916;32;33475;-85
2023/07/30 02:09:44;;;;;;;0.80;0.52;;;;;;;24.43;56.25;99393.06;4376458;32;34415;-84
2023/07/30 02:12:12;;;;;;;0.60;0.40;;;;;;;24.41;56.31;99390.56;4396409;32;33712;-85
2023/07/30 02:14:40;;;;;;;0.00;0.00;;;;;;;24.30;56.36;99392.66;4393059;32;33172;-85
2023/07/30 02:17:08;;;;;;;0.10;0.00;;;;;;;24.26;56.86;99393.03;4382688;32;34419;-86
2023/07/30 02:19:36;;;;;;;0.08;0.08;;;;;;;24.28;56.37;99396.38;4375463;32;32461;-85
2023/07/30 02:22:03;;;;;;;0.10;0.10;;;;;;;24.30;56.32;99392.66;4375831;32;34020;-85
2023/07/30 02:24:33;;;;;;;0.10;0.10;;;;;;;24.31;56.31;99388.97;4397050;32;32825;-85
2023/07/30 02:27:00;;;;;;;0.20;0.20;;;;;;;24.25;56.37;99385.91;4387016;32;33166;-85
2023/07/30 02:29:28;;;;;;;0.10;0.10;;;;;;;24.14;56.32;99393.47;4387511;32;33071;-85
2023/07/30 02:31:56;;;;;;;0.10;0.10;;;;;;;24.20;56.23;99390.13;4388290;32;34019;-84
2023/07/30 02:34:24;;;;;;;0.05;0.05;;;;;;;24.19;56.39;99381.19;4389495;32;32953;-85
2023/07/30 02:36:52;;;;;;;0.13;0.13;;;;;;;24.21;56.48;99395.38;4375773;32;33961;-85
2023/07/30 02:39:20;;;;;;;0.15;0.15;;;;;;;24.20;56.60;99393.66;4387598;32;34704;-84
2023/07/30 02:41:48;;;;;;;0.17;0.10;;;;;;;24.28;56.36;99392.84;4390934;32;34253;-84
2023/07/30 02:44:15;;;;;;;0.00;0.00;;;;;;;24.24;56.37;99399.56;4391399;32;32318;-84
2023/07/30 02:46:43;;;;;;;0.10;0.10;;;;;;;24.07;56.86;99404.09;4374949;32;33056;-85
2023/07/30 02:49:11;;;;;;;0.13;0.13;;;;;;;24.13;56.70;99403.44;4379302;32;32837;-84
2023/07/30 02:51:38;;;;;;;0.13;0.10;;;;;;;24.00;57.15;99409.28;4377662;32;34182;-84
2023/07/30 02:54:07;;;;;;;0.20;0.20;;;;;;;24.07;56.87;99398.69;4384226;32;32412;-84
2023/07/30 02:56:35;;;;;;;0.93;0.32;;;;;;;24.20;56.35;99396.34;4372712;32;33177;-84
2023/07/30 02:59:02;;;;;;;0.00;0.00;;;;;;;24.14;56.66;99388.91;4376086;32;33662;-84
2023/07/30 03:01:30;;;;;;;0.03;0.03;;;;;;;23.99;57.11;99393.25;4374100;32;33262;-85
2023/07/30 03:03:58;;;;;;;0.85;0.55;;;;;;;23.98;57.07;99397.81;4389148;32;32709;-84
2023/07/30 03:06:26;;;;;;;0.30;0.20;;;;;;;24.07;56.76;99393.28;4374152;32;34065;-84
2023/07/30 03:08:54;;;;;;;0.10;0.10;;;;;;;24.02;57.03;99401.00;4384365;32;33730;-85
2023/07/30 03:11:22;;;;;;;0.20;0.20;;;;;;;24.01;57.19;99396.63;4369340;32;32924;-85
2023/07/30 03:13:50;;;;;;;0.25;0.15;;;;;;;23.99;57.21;99390.56;4374085;32;33783;-85
2023/07/30 03:16:18;;;;;;;0.00;0.00;;;;;;;24.01;57.15;99393.94;4369248;32;32807;-86
2023/07/30 03:18:45;;;;;;;0.30;0.30;;;;;;;23.95;57.38;99389.19;4373855;32;34724;-86
2023/07/30 03:21:13;;;;;;;0.52;0.30;;;;;;;23.92;57.44;99394.91;4361785;32;32946;-86
2023/07/30 03:23:43;;;;;;;0.08;0.08;;;;;;;23.94;57.46;99401.00;4390374;32;32211;-86
2023/07/30 03:26:11;;;;;;;0.85;0.68;;;;;;;23.86;57.97;99403.66;4379512;32;33826;-86
2023/07/30 03:28:39;;;;;;;0.40;0.40;;;;;;;23.90;58.02;99403.16;4355110;32;34025;-86
2023/07/30 03:31:07;;;;;;;0.35;0.35;;;;;;;23.90;58.17;99407.72;4384978;32;33849;-86
2023/07/30 03:33:35;;;;;;;4.25;0.47;;;;;;;23.84;58.58;99408.38;4373015;32;34036;-86
2023/07/30 03:36:03;;;;;;;0.40;0.40;;;;;;;23.80;58.87;99407.84;4398175;32;33876;-86
2023/07/30 03:38:31;;;;;;;1.52;0.85;;;;;;;24.06;58.06;99413.16;4373539;32;33892;-86
2023/07/30 03:40:59;;;;;;;0.00;0.00;;;;;;;23.90;58.68;99405.84;4385033;32;32953;-86
2023/07/30 03:43:27;;;;;;;0.00;0.00;;;;;;;23.80;59.30;99407.00;4378430;32;33026;-86
2023/07/30 03:45:55;;;;;;;0.10;0.10;;;;;;;23.91;58.91;99409.41;4377746;32;34286;-86
2023/07/30 03:48:22;;;;;;;0.15;0.15;;;;;;;24.13;58.59;99408.81;4390043;32;32366;-86
2023/07/30 03:50:50;;;;;;;0.90;0.62;;;;;;;23.88;59.45;99409.72;4394833;32;32991;-86
2023/07/30 03:53:18;;;;;;;0.17;0.17;;;;;;;23.84;59.64;99406.50;4392019;32;32262;-86
2023/07/30 03:55:46;;;;;;;0.35;0.35;;;;;;;23.90;59.56;99408.56;4386596;32;34167;-85
2023/07/30 03:58:13;;;;;;;0.17;0.10;;;;;;;23.91;59.43;99420.19;4360858;32;33208;-85
2023/07/30 04:00:42;;;;;;;0.15;0.15;;;;;;;23.94;59.28;99414.47;4369526;32;175936;-85
2023/07/30 04:03:10;;;;;;;0.10;0.10;;;;;;;23.87;59.27;99418.81;4373799;32;32891;-85
2023/07/30 04:05:37;;;;;;;0.17;0.17;;;;;;;23.86;59.20;99419.81;4388649;32;33882;-85
2023/07/30 04:08:05;;;;;;;0.55;0.55;;;;;;;23.89;58.82;99422.22;4376376;32;33070;-85
2023/07/30 04:10:33;;;;;;;0.10;0.10;;;;;;;23.84;58.54;99429.94;4376245;32;32234;-84
2023/07/30 04:13:01;;;;;;;1.98;0.55;;;;;;;24.03;57.96;99435.09;4368328;32;33485;-85
2023/07/30 04:15:29;;;;;;;0.00;0.00;;;;;;;24.04;57.70;99431.38;4373960;32;34103;-85
2023/07/30 04:17:57;;;;;;;0.40;0.30;;;;;;;24.00;57.59;99430.84;4395785;32;33310;-85
2023/07/30 04:20:25;;;;;;;0.03;0.03;;;;;;;24.15;57.18;99439.16;4396200;32;32505;-85
2023/07/30 04:22:54;;;;;;;0.10;0.10;;;;;;;24.16;57.18;99429.22;4378627;32;33597;-85
2023/07/30 04:25:22;;;;;;;0.08;0.08;;;;;;;24.23;56.87;99435.66;4379590;32;33763;-85
2023/07/30 04:27:50;;;;;;;0.10;0.10;;;;;;;24.35;56.85;99436.19;4377089;32;33963;-84
2023/07/30 04:30:19;;;;;;;0.60;0.60;;;;;;;24.53;55.87;99431.56;4380057;32;33093;-83
2023/07/30 04:32:47;;;;;;;0.10;0.10;;;;;;;24.41;56.66;99432.88;4377548;32;33498;-85
2023/07/30 04:35:15;;;;;;;2.03;0.43;;;;;;;24.39;56.03;99435.72;4376365;32;33162;-84
2023/07/30 04:37:43;;;;;;;0.25;0.25;;;;;;;24.33;56.49;99440.91;4376386;32;33036;-85
2023/07/30 04:40:11;;;;;;;0.10;0.10;;;;;;;24.30;56.49;99435.84;4368080;32;33653;-84
2023/07/30 04:42:39;;;;;;;0.22;0.13;;;;;;;24.30;56.35;99441.22;4388704;32;31564;-84
2023/07/30 04:45:07;;;;;;;0.37;0.37;;;;;;;24.50;55.25;99437.28;4382126;32;33462;-84
2023/07/30 04:47:35;;;;;;;0.10;0.10;;;;;;;24.62;55.37;99435.13;4376626;32;33846;-84
2023/07/30 04:50:03;;;;;;;0.28;0.28;;;;;;;24.55;56.09;99437.66;4375933;32;34330;-84
2023/07/30 04:52:30;;;;;;;0.00;0.00;;;;;;;24.53;56.55;99437.78;4373727;32;33404;-84
2023/07/30 04:54:58;;;;;;;0.22;0.13;;;;;;;24.63;56.24;99432.25;4376428;32;33444;-84
2023/07/30 04:57:26;;;;;;;0.55;0.30;;;;;;;24.83;55.09;99445.44;4364359;32;34201;-84
2023/07/30 04:59:54;;;;;;;0.25;0.15;;;;;;;24.82;55.24;99450.00;4369070;32;34359;-84
2023/07/30 05:02:22;;;;;;;0.30;0.30;;;;;;;24.99;55.28;99456.25;4390154;32;33038;-84
2023/07/30 05:04:50;;;;;;;0.30;0.22;;;;;;;25.04;54.76;99451.19;4401114;32;33968;-84
2023/07/30 05:07:18;;;;;;;0.20;0.13;;;;;;;25.15;54.74;99447.34;4374824;32;33438;-84
2023/07/30 05:09:45;;;;;;;0.17;0.17;;;;;;;25.20;54.74;99448.53;4387835;32;34084;-85
2023/07/30 05:12:13;;;;;;;0.37;0.30;;;;;;;25.19;55.59;99462.22;4378907;32;32364;-84
2023/07/30 05:14:40;;;;;;;0.10;0.10;;;;;;;25.19;56.15;99460.34;4385085;32;33373;-84
2023/07/30 05:17:08;;;;;;;0.80;0.30;;;;;;;25.35;55.11;99459.47;4373392;32;36957;-85
2023/07/30 05:19:36;;;;;;;0.25;0.25;;;;;;;25.41;55.64;99452.56;4373682;32;33172;-84
2023/07/30 05:22:05;;;;;;;1.62;0.30;;;;;;;25.61;54.58;99450.34;4366727;32;33467;-85
2023/07/30 05:24:33;;;;;;;0.35;0.28;;;;;;;25.58;54.89;99438.00;4386445;32;32911;-85
2023/07/30 05:27:01;;;;;;;0.03;0.03;;;;;;;25.71;55.03;99443.72;4376228;32;32357;-85
2023/07/30 05:29:28;;;;;;;0.32;0.32;;;;;;;25.79;54.75;99435.63;4387417;32;33898;-86
2023/07/30 05:31:57;;;;;;;0.10;0.10;;;;;;;25.72;55.00;99431.03;4374758;32;33072;-86
2023/07/30 05:34:24;;;;;;;1.55;0.57;;;;;;;25.70;54.87;99431.22;4386138;32;34042;-86
2023/07/30 05:36:52;;;;;;;0.35;0.32;;;;;;;25.74;54.01;99431.72;4363329;32;34508;-86
2023/07/30 05:39:20;;;;;;;0.30;0.30;;;;;;;25.84;54.01;99436.97;4374480;32;32837;-86
2023/07/30 05:41:47;;;;;;;0.37;0.37;;;;;;;25.92;53.12;99442.34;4388021;32;32892;-85
2023/07/30 05:44:15;;;;;;;0.03;0.03;;;;;;;25.83;53.12;99446.06;4358299;32;33477;-86
2023/07/30 05:46:47;;;;;;;0.30;0.30;;;;;;;25.78;52.70;99439.34;4372477;32;32945;-86
2023/07/30 05:49:15;;;;;;;0.25;0.25;;;;;;;25.76;52.36;99443.25;4386349;32;32970;-85
2023/07/30 05:51:43;;;;;;;0.10;0.10;;;;;;;25.75;52.72;99444.22;4383700;32;34086;-85
2023/07/30 05:54:12;;;;;;;0.20;0.20;;;;;;;25.75;52.58;99447.81;4359482;32;32889;-85
2023/07/30 05:56:39;;;;;;;0.47;0.47;;;;;;;25.79;52.28;99445.59;4384166;32;34126;-85
2023/07/30 05:59:07;;;;;;;0.20;0.20;;;;;;;25.91;51.97;99446.06;4384880;32;32630;-85
2023/07/30 06:01:34;;;;;;;0.40;0.40;;;;;;;25.93;52.03;99452.16;4362570;32;32564;-85
2023/07/30 06:04:06;;;;;;;0.10;0.10;;;;;;;26.07;52.79;99454.13;4377250;32;33711;-85
2023/07/30 06:06:34;;;;;;;0.00;0.00;;;;;;;26.25;53.01;99457.44;4348792;32;33451;-85
2023/07/30 06:09:01;;;;;;;0.20;0.20;;;;;;;26.00;53.42;99455.84;4358966;32;33722;-84
2023/07/30 06:11:29;;;;;;;0.25;0.25;;;;;;;25.96;51.70;99457.19;4375288;32;33186;-85
2023/07/30 06:13:57;;;;;;;0.40;0.40;;;;;;;25.83;53.12;99462.31;4358051;32;34469;-84
2023/07/30 06:16:24;;;;;;;1.60;0.20;;;;;;;26.11;52.87;99460.87;4356736;32;32640;-84
2023/07/30 06:18:52;;;;;;;1.05;0.95;;;;;;;25.92;53.50;99458.56;4372694;32;33491;-84
2023/07/30 06:21:20;;;;;;;0.25;0.25;;;;;;;26.09;52.27;99457.50;4377090;32;32953;-85
2023/07/30 06:23:47;;;;;;;0.80;0.60;;;;;;;26.16;51.86;99453.09;4395395;32;33779;-85
2023/07/30 06:26:15;;;;;;;0.43;0.43;;;;;;;26.40;51.92;99454.00;4386813;32;34103;-85
2023/07/30 06:28:43;;;;;;;2.53;0.80;;;;;;;26.36;52.21;99458.91;4382567;32;33168;-85
2023/07/30 06:31:10;;;;;;;0.20;0.20;;;;;;;26.20;51.95;99448.16;4362191;32;33680;-85
2023/07/30 06:33:38;;;;;;;0.52;0.52;;;;;;;26.30;51.79;99455.06;4355110;32;33829;-85
2023/07/30 06:36:06;;;;;;;0.40;0.40;;;;;;;26.62;50.87;99442.38;4374647;32;33892;-85
2023/07/30 06:38:34;;;;;;;1.02;0.93;;;;;;;26.66;51.23;99451.81;4349717;32;34012;-85
2023/07/30 06:41:05;;;;;;;0.55;0.37;;;;;;;26.52;51.06;99452.59;4380363;32;34101;-85
2023/07/30 06:43:32;;;;;;;0.00;0.00;;;;;;;26.57;50.56;99442.06;4371134;32;32445;-85
2023/07/30 06:46:00;;;;;;;0.00;0.00;;;;;;;26.64;50.81;99451.19;4382283;32;33679;-85
2023/07/30 06:48:28;;;;;;;0.20;0.15;;;;;;;26.63;51.42;99449.47;4352732;32;33714;-85
2023/07/30 06:50:58;;;;;;;0.15;0.15;;;;;;;26.78;51.24;99452.28;4371328;32;32627;-85
2023/07/30 06:53:26;;;;;;;9.57;0.45;;;;;;;26.69;51.15;99448.78;4367633;32;32758;-86
2023/07/30 06:55:54;;;;;;;0.35;0.35;;;;;;;26.79;50.60;99454.78;4360803;32;32948;-85
2023/07/30 06:58:21;;;;;;;0.35;0.35;;;;;;;26.61;51.13;99451.53;4382448;32;34229;-85
2023/07/30 07:00:49;;;;;;;0.68;0.32;;;;;;;26.55;51.26;99458.50;4376363;32;33435;-85
2023/07/30 07:03:17;;;;;;;0.17;0.13;;;;;;;26.36;52.02;99468.91;4383604;32;32746;-89
2023/07/30 07:05:52;;;;;;;0.20;0.20;;;;;;;26.19;53.28;99485.19;4383381;32;34296;-90
2023/07/30 07:08:21;;;;;;;0.52;0.45;;;;;;;26.09;54.03;99484.56;4385370;32;33286;-91
2023/07/30 07:10:49;;;;;;;0.30;0.28;;;;;;;26.01;54.78;99485.41;4381187;32;32680;-91
2023/07/30 07:13:19;;;;;;;4.10;0.88;;;;;;;25.76;55.08;99495.47;4380864;32;33009;-90
2023/07/30 07:15:55;;;;;;;0.10;0.10;;;;;;;25.88;54.91;99505.94;4396578;32;34810;-90
2023/07/30 07:22:54;;;;;;;0.20;0.17;;;;;;;25.83;55.62;99517.28;4368565;32;34850;-90
2023/07/30 07:25:23;;;;;;;0.57;0.57;;;;;;;25.59;57.10;99526.22;4356515;32;34815;-89
2023/07/30 07:28:04;;;;;;;0.50;0.50;;;;;;;25.61;57.09;99528.75;4363565;32;33893;-89
2023/07/30 07:30:47;;;;;;;0.90;0.55;;;;;;;25.54;57.32;99526.75;4378174;32;33351;-88
2023/07/30 07:33:37;;;;;;;0.15;0.15;;;;;;;25.54;57.11;99529.44;4351295;32;36185;-89
2023/07/30 07:36:18;;;;;;;0.37;0.37;;;;;;;25.46;57.62;99528.59;4380421;32;33221;-89
2023/07/30 07:39:03;;;;;;;1.25;0.60;;;;;;;25.70;56.97;99533.97;4364131;32;33516;-89
2023/07/30 07:41:31;;;;;;;0.45;0.32;;;;;;;25.53;56.93;99538.53;4370330;32;33521;-89
2023/07/30 07:43:59;;;;;;;0.62;0.62;;;;;;;25.74;57.22;99527.22;4360744;32;32474;-88
2023/07/30 07:46:28;;;;;;;0.10;0.10;;;;;;;25.94;56.34;99535.84;4383520;32;33395;-89
2023/07/30 07:49:01;;;;;;;0.52;0.52;;;;;;;26.01;55.17;99530.56;4371898;32;34036;-89
2023/07/30 07:51:37;;;;;;;0.43;0.43;;;;;;;25.95;55.76;99533.97;4370717;32;34049;-89
2023/07/30 07:54:06;;;;;;;0.40;0.20;;;;;;;25.81;55.70;99542.78;4372761;32;33620;-88
2023/07/30 07:56:34;;;;;;;0.28;0.28;;;;;;;25.22;58.01;99549.19;4369921;32;33418;-89
2023/07/30 07:59:15;;;;;;;0.40;0.40;;;;;;;25.33;58.14;99553.41;4384878;32;33327;-89
2023/07/30 08:01:43;;;;;;;0.40;0.40;;;;;;;25.18;58.96;99555.94;4367111;32;33075;-90
2023/07/30 08:04:11;;;;;;;2.62;0.65;;;;;;;25.17;59.68;99551.53;4370782;32;33348;-89
2023/07/30 08:06:39;;;;;;;0.65;0.60;;;;;;;25.14;59.43;99551.03;4355559;32;33558;-89
2023/07/30 08:09:07;;;;;;;0.75;0.28;;;;;;;25.00;60.09;99553.31;4355821;32;33174;-89
2023/07/30 08:11:35;;;;;;;0.15;0.15;;;;;;;24.85;60.65;99551.44;4356216;32;34538;-90
2023/07/30 08:14:05;;;;;;;0.17;0.17;;;;;;;24.86;60.97;99553.97;4358286;32;33129;-90
2023/07/30 08:16:33;;;;;;;0.80;0.57;;;;;;;24.93;60.95;99560.41;4366546;32;33890;-90
2023/07/30 08:19:02;;;;;;;2.60;0.70;;;;;;;24.83;61.56;99558.84;4343143;32;33035;-91
2023/07/30 08:21:29;;;;;;;0.20;0.20;;;;;;;24.88;61.77;99553.81;4369719;32;33822;-90
2023/07/30 08:23:57;;;;;;;3.45;0.37;;;;;;;24.78;62.12;99556.63;4370046;32;34285;-91
2023/07/30 08:26:25;;;;;;;0.30;0.28;;;;;;;24.61;63.10;99560.31;4376345;32;34031;-91
2023/07/30 08:28:53;;;;;;;0.55;0.55;;;;;;;24.70;62.26;99554.78;4368874;32;33006;-91
2023/07/30 08:31:20;;;;;;;0.20;0.20;;;;;;;24.65;62.58;99559.81;4355160;32;32814;-91
2023/07/30 08:33:48;;;;;;;0.40;0.40;;;;;;;24.63;62.80;99551.03;4363408;32;30644;-91
2023/07/30 08:36:16;;;;;;;0.30;0.30;;;;;;;24.52;63.61;99554.03;4375494;32;33912;-91
2023/07/30 08:38:43;;;;;;;0.90;0.70;;;;;;;24.60;63.39;99555.91;4362030;32;32586;-90
2023/07/30 08:41:12;;;;;;;0.43;0.28;;;;;;;24.64;63.45;99547.34;4363023;32;33786;-91
2023/07/30 08:43:39;;;;;;;0.20;0.20;;;;;;;24.56;64.13;99547.28;4357800;32;32391;-91
2023/07/30 08:46:08;;;;;;;0.60;0.52;;;;;;;24.55;64.62;99542.91;4373787;32;33224;-91
2023/07/30 08:49:38;;;;;;;0.05;0.05;;;;;;;24.51;64.66;99553.19;4372301;32;32779;-91
2023/07/30 08:52:42;;;;;;;0.57;0.52;;;;;;;24.61;65.62;99550.34;4336941;32;34294;-91
2023/07/30 08:55:11;;;;;;;0.85;0.47;;;;;;;24.48;65.93;99549.97;4367903;32;32269;-91
2023/07/30 08:57:39;;;;;;;0.52;0.50;;;;;;;24.54;65.71;99538.50;4373538;32;32869;-90
2023/07/30 09:00:09;;;;;;;0.13;0.13;;;;;;;24.54;65.80;99546.59;4369336;32;33727;-91
2023/07/30 09:02:48;;;;;;;0.10;0.10;;;;;;;24.64;65.26;99550.03;4372964;32;33091;-90
2023/07/30 09:05:16;;;;;;;0.25;0.25;;;;;;;24.61;65.22;99546.81;4371792;32;32706;-91
2023/07/30 09:07:44;;;;;;;0.10;0.10;;;;;;;24.56;65.59;99541.91;4342019;32;34023;-90
2023/07/30 09:10:12;;;;;;;0.30;0.30;;;;;;;24.84;64.80;99547.06;4379193;32;33786;-90
2023/07/30 09:12:40;;;;;;;1.45;0.47;;;;;;;24.76;65.10;99547.88;4377670;32;33078;-90
2023/07/30 09:15:08;;;;;;;0.95;0.73;;;;;;;24.81;65.33;99541.97;4374308;32;33968;-91
2023/07/30 09:17:38;;;;;;;1.30;0.70;;;;;;;24.85;65.61;99551.44;4368498;32;34105;-90
2023/07/30 09:20:06;;;;;;;0.25;0.25;;;;;;;25.04;65.00;99554.69;4376767;32;33412;-90
2023/07/30 09:22:40;;;;;;;1.87;0.98;;;;;;;25.08;64.87;99557.94;4368563;32;33752;-90
2023/07/30 09:25:08;;;;;;;0.40;0.40;;;;;;;25.11;64.85;99565.69;4369173;32;33150;-90
2023/07/30 09:27:37;;;;;;;0.98;0.60;;;;;;;24.85;64.81;99544.19;4374273;32;33811;-90
2023/07/30 09:30:05;;;;;;;0.40;0.40;;;;;;;24.86;64.76;99555.81;4393820;32;32152;-90
2023/07/30 09:32:34;;;;;;;0.50;0.50;;;;;;;25.05;64.53;99550.13;4384086;32;32377;-90
2023/07/30 09:35:07;;;;;;;1.42;0.40;;;;;;;25.03;65.22;99552.16;4384074;32;32322;-90
2023/07/30 09:37:39;;;;;;;2.10;1.02;;;;;;;25.12;65.11;99555.75;4373921;32;32988;-90
2023/07/30 09:40:10;;;;;;;0.55;0.55;;;;;;;25.15;64.65;99548.16;4360762;32;34697;-90
2023/07/30 09:42:40;;;;;;;0.25;0.25;;;;;;;25.34;63.68;99546.16;4357640;32;33181;-89
2023/07/30 09:45:16;;;;;;;0.75;0.70;;;;;;;25.33;63.74;99550.72;4372232;32;34233;-90
2023/07/30 09:47:48;;;;;;;0.13;0.13;;;;;;;25.31;64.15;99543.78;4374181;32;33416;-90
2023/07/30 09:50:16;;;;;;;0.52;0.43;;;;;;;25.28;64.61;99548.50;4369442;32;33132;-91
2023/07/30 09:52:44;;;;;;;0.47;0.47;;;;;;;25.36;64.12;99541.44;4371696;32;32647;-90
2023/07/30 09:55:12;;;;;;;0.55;0.55;;;;;;;25.38;64.11;99547.50;4373496;32;32842;-90
2023/07/30 09:57:40;;;;;;;0.93;0.80;;;;;;;25.33;64.18;99541.75;4372157;32;32941;-90
2023/07/30 10:00:08;;;;;;;0.50;0.50;;;;;;;25.33;64.33;99539.91;4377515;32;33933;-90
2023/07/30 10:02:42;;;;;;;0.32;0.32;;;;;;;25.20;64.68;99539.53;4368987;32;34574;-90
2023/07/30 10:05:14;;;;;;;0.22;0.22;;;;;;;25.32;64.21;99550.87;4384734;32;32355;-90
2023/07/30 10:07:58;;;;;;;0.30;0.30;;;;;;;25.29;64.29;99546.66;4368968;32;35079;-91
2023/07/30 10:10:27;;;;;;;0.43;0.43;;;;;;;25.09;65.43;99556.94;4371532;32;32936;-91
2023/07/30 10:12:59;;;;;;;0.20;0.20;;;;;;;25.41;64.45;99552.59;4372217;32;34377;-90
2023/07/30 10:15:26;;;;;;;1.45;1.10;;;;;;;25.62;62.88;99552.91;4382794;32;33324;-90
2023/07/30 10:17:56;;;;;;;0.30;0.30;;;;;;;25.38;63.84;99547.50;4359988;32;34730;-90
2023/07/30 10:20:29;;;;;;;1.27;1.23;;;;;;;25.10;64.09;99547.81;4384320;32;33818;-89
2023/07/30 10:22:58;;;;;;;2.15;0.80;;;;;;;25.26;63.57;99553.25;4372187;32;36146;-90
2023/07/30 10:25:30;;;;;;;0.65;0.65;;;;;;;25.17;63.77;99556.09;4382127;32;32214;-90
2023/07/30 10:27:58;;;;;;;0.20;0.17;;;;;;;25.35;62.28;99555.94;4360687;32;32710;-90
2023/07/30 10:30:31;;;;;;;0.47;0.45;;;;;;;25.08;62.28;99552.53;4374598;32;33013;-90
2023/07/30 10:32:59;;;;;;;;;;;;;;;25.12;62.10;99543.09;4370057;32;33878;-90
2023/07/30 10:35:38;;;;;;;2.60;0.50;;;;;;;25.18;61.20;99538.88;4384213;32;33354;-90
2023/07/30 10:38:16;;;;;;;0.00;0.00;;;;;;;25.44;59.78;99527.91;4381994;32;32419;-90
2023/07/30 10:41:01;;;;;;;0.88;0.50;;;;;;;25.14;60.77;99532.97;4363992;32;34072;-90
2023/07/30 10:43:37;;;;;;;0.20;0.20;;;;;;;24.94;62.05;99536.94;4365598;32;34706;-90
2023/07/30 10:46:05;;;;;;;0.52;0.52;;;;;;;24.97;62.80;99531.19;4381511;32;33257;-90
2023/07/30 10:48:35;;;;;;;0.25;0.25;;;;;;;25.23;61.30;99523.84;4383848;32;33933;-90
2023/07/30 10:51:05;;;;;;;0.25;0.25;;;;;;;25.12;62.04;99529.59;4371155;32;33828;-89
2023/07/30 10:53:35;;;;;;;0.73;0.57;;;;;;;25.15;62.66;99529.22;4369333;32;34385;-90
2023/07/30 10:56:04;;;;;;;0.17;0.17;;;;;;;25.28;62.37;99534.16;4372624;32;32147;-90
2023/07/30 10:58:34;;;;;;;11.23;0.75;;;;;;;25.20;62.61;99543.09;4383902;32;32355;-90
2023/07/30 11:01:04;;;;;;;0.77;0.60;;;;;;;25.23;62.90;99541.91;4358600;32;34496;-89
2023/07/30 11:03:32;;;;;;;0.93;0.85;;;;;;;25.30;62.69;99542.94;4384302;32;33340;-90
2023/07/30 11:06:01;;;;;;;0.30;0.30;;;;;;;25.38;62.37;99542.09;4383300;32;34211;-89
2023/07/30 11:08:36;;;;;;;0.43;0.30;;;;;;;25.37;62.26;99532.31;4368215;32;34015;-89
2023/07/30 11:11:05;;;;;;;0.45;0.45;;;;;;;25.67;60.66;99523.50;4384508;32;33174;-90
2023/07/30 11:13:37;;;;;;;0.52;0.40;;;;;;;25.33;62.33;99528.25;4371597;32;33670;-90
2023/07/30 11:16:06;;;;;;;;;;;;;;;25.21;62.77;99533.12;4363573;32;31534;-89
2023/07/30 11:18:35;;;;;;;0.15;0.15;;;;;;;25.22;63.38;99540.25;4377063;32;33515;-89
2023/07/30 11:21:10;;;;;;;0.70;0.70;;;;;;;25.30;62.66;99537.53;4370086;32;34016;-90
2023/07/30 11:23:41;;;;;;;0.73;0.40;;;;;;;25.37;62.92;99549.38;4357765;32;32434;-89
2023/07/30 11:26:14;;;;;;;0.22;0.22;;;;;;;25.52;62.35;99530.59;4379516;32;32687;-89
2023/07/30 11:28:43;;;;;;;0.98;0.68;;;;;;;25.64;62.28;99531.97;4371982;32;32678;-89
2023/07/30 11:31:11;;;;;;;3.75;1.40;;;;;;;25.46;63.11;99534.84;4380768;32;33353;-89
2023/07/30 11:33:46;;;;;;;0.08;0.08;;;;;;;25.47;63.16;99538.38;4371119;32;33412;-90
2023/07/30 11:36:22;;;;;;;0.47;0.43;;;;;;;25.63;62.82;99538.38;4380190;32;34421;-90
2023/07/30 11:38:52;;;;;;;0.47;0.43;;;;;;;25.53;61.24;99540.41;4378818;32;34163;-89
2023/07/30 11:41:23;;;;;;;0.60;0.60;;;;;;;25.24;63.24;99539.03;4383878;32;34476;-89
2023/07/30 11:43:51;;;;;;;1.42;1.33;;;;;;;25.33;63.84;99547.16;4370047;32;32639;-90
2023/07/30 11:46:22;;;;;;;0.43;0.37;;;;;;;25.15;63.43;99545.44;4378884;32;32887;-89
2023/07/30 11:48:53;;;;;;;1.25;0.32;;;;;;;25.38;61.98;99544.81;4369128;32;33967;-90